Time;durP1;ratioP1;P1;durP2;ratioP2;P2;SDS_P1;SDS_P2;PMS_P1;PMS_P2;Temp;Humidity;BMP_temperature;BMP_pressure;BME280_temperature;BME280_humidity;BME280_pressure;Samples;Min_cycle;Max_cycle;Signal;HPM_P1;HPM_P2
2022/11/24 00:01:17;;;;;;;0.10;0.10;;;;;;;4.14;100.00;99050.84;6272099;22;20026;-82
2022/11/24 00:03:44;;;;;;;0.05;0.05;;;;;;;4.11;100.00;99041.50;6273793;22;20053;-82
2022/11/24 00:06:12;;;;;;;0.20;0.20;;;;;;;4.25;100.00;99059.66;6274685;22;20008;-81
2022/11/24 00:08:38;;;;;;;0.57;0.57;;;;;;;4.26;100.00;99055.75;6273415;22;20015;-82
2022/11/24 00:11:10;;;;;;;0.05;0.05;;;;;;;4.23;100.00;99064.81;6245673;22;20016;-82
2022/11/24 00:13:39;;;;;;;0.10;0.10;;;;;;;4.23;100.00;99067.56;6275462;22;20366;-82
2022/11/24 00:16:09;;;;;;;1.08;0.52;;;;;;;4.20;100.00;99060.94;6247134;22;20015;-82
2022/11/24 00:18:35;;;;;;;0.00;0.00;;;;;;;4.17;100.00;99070.00;6275406;22;20016;-82
2022/11/24 00:21:00;;;;;;;0.35;0.35;;;;;;;4.11;100.00;99054.44;6273202;22;20097;-82
2022/11/24 00:23:25;;;;;;;0.30;0.30;;;;;;;4.11;100.00;99060.69;6274214;22;20082;-83
2022/11/24 00:25:51;;;;;;;1.85;1.60;;;;;;;4.17;100.00;99067.25;6247977;22;20008;-82
2022/11/24 00:28:16;;;;;;;0.08;0.08;;;;;;;4.16;100.00;99062.97;6275046;22;20011;-82
2022/11/24 00:30:42;;;;;;;0.00;0.00;;;;;;;4.19;100.00;99075.09;6275099;22;20012;-82
2022/11/24 00:33:07;;;;;;;0.00;0.00;;;;;;;4.25;100.00;99081.63;6274246;22;20000;-82
2022/11/24 00:35:33;;;;;;;0.75;0.47;;;;;;;4.25;100.00;99084.38;6275184;22;20020;-81
2022/11/24 00:37:58;;;;;;;0.00;0.00;;;;;;;4.17;100.00;99082.94;6274707;22;20027;-82
2022/11/24 00:40:23;;;;;;;1.20;1.10;;;;;;;4.22;100.00;99096.19;6272611;22;20039;-81
2022/11/24 00:42:49;;;;;;;0.28;0.28;;;;;;;4.26;100.00;99099.66;6273439;22;20008;-81
2022/11/24 00:45:14;;;;;;;0.20;0.17;;;;;;;4.23;100.00;99092.28;6274299;22;20011;-76
2022/11/24 00:47:40;;;;;;;0.75;0.75;;;;;;;4.27;100.00;99098.47;6247420;22;20011;-77
2022/11/24 00:50:06;;;;;;;0.03;0.03;;;;;;;4.34;100.00;99100.31;6272401;22;20011;-76
2022/11/24 00:52:31;;;;;;;0.00;0.00;;;;;;;4.34;100.00;99094.81;6245552;22;20004;-77
2022/11/24 00:54:57;;;;;;;0.00;0.00;;;;;;;4.22;100.00;99087.97;6273466;22;20015;-76
2022/11/24 00:57:22;;;;;;;0.55;0.55;;;;;;;4.18;100.00;99098.22;6272413;22;19999;-76
2022/11/24 00:59:47;;;;;;;0.60;0.60;;;;;;;4.08;100.00;99094.47;6245993;22;20415;-77
2022/11/24 01:02:13;;;;;;;2.78;1.15;;;;;;;4.11;100.00;99103.84;6272665;22;20369;-77
2022/11/24 01:04:38;;;;;;;0.00;0.00;;;;;;;4.17;100.00;99121.38;6273977;22;20020;-76
2022/11/24 01:07:04;;;;;;;0.00;0.00;;;;;;;4.17;100.00;99118.63;6246562;22;20048;-77
2022/11/24 01:09:29;;;;;;;0.47;0.47;;;;;;;4.20;100.00;99117.81;6273204;22;20008;-76
2022/11/24 01:12:01;;;;;;;0.63;0.63;;;;;;;4.23;100.00;99126.00;6272048;22;20065;-77
2022/11/24 01:14:27;;;;;;;0.30;0.30;;;;;;;4.21;100.00;99125.63;6272011;22;20396;-76
2022/11/24 01:16:53;;;;;;;0.10;0.10;;;;;;;4.22;100.00;99115.41;6245532;22;20410;-77
2022/11/24 01:19:18;;;;;;;0.20;0.20;;;;;;;4.21;100.00;99114.63;6274815;22;20034;-76
2022/11/24 01:21:44;;;;;;;0.20;0.20;;;;;;;4.25;100.00;99113.81;6247478;22;20310;-77
2022/11/24 01:24:10;;;;;;;0.60;0.57;;;;;;;4.30;100.00;99119.59;6272724;22;20460;-76
2022/11/24 01:26:35;;;;;;;1.17;0.45;;;;;;;4.31;100.00;99117.63;6246471;22;20007;-77
2022/11/24 01:29:01;;;;;;;0.10;0.10;;;;;;;4.32;100.00;99114.47;6271359;22;20019;-76
2022/11/24 01:31:26;;;;;;;0.10;0.10;;;;;;;4.36;100.00;99120.69;6273248;22;20323;-76
2022/11/24 01:33:52;;;;;;;0.17;0.17;;;;;;;4.21;100.00;99109.16;6245243;22;20319;-77
2022/11/24 01:36:18;;;;;;;0.00;0.00;;;;;;;4.21;100.00;99111.09;6245296;22;20012;-77
2022/11/24 01:38:44;;;;;;;0.28;0.28;;;;;;;4.27;100.00;99114.16;6273422;22;20061;-76
2022/11/24 01:41:17;;;;;;;0.93;0.93;;;;;;;4.30;100.00;99121.56;6271773;22;20000;-77
2022/11/24 01:43:44;;;;;;;0.38;0.38;;;;;;;4.26;100.00;99110.66;6273148;22;20030;-76
2022/11/24 01:46:36;;;;;;;0.50;0.50;;;;;;;4.24;100.00;99121.28;6272617;22;20094;-77
2022/11/24 01:49:08;;;;;;;0.20;0.20;;;;;;;4.28;100.00;99124.75;6272921;22;20024;-77
2022/11/24 01:51:37;;;;;;;0.00;0.00;;;;;;;4.23;100.00;99117.75;6246014;22;20020;-76
2022/11/24 01:54:10;;;;;;;1.55;1.45;;;;;;;4.17;100.00;99113.13;6244690;22;20003;-76
2022/11/24 01:56:39;;;;;;;0.40;0.40;;;;;;;4.18;100.00;99120.19;6246168;22;20087;-77
2022/11/24 01:59:06;;;;;;;1.08;0.98;;;;;;;4.16;100.00;99117.09;6271938;22;20300;-77
2022/11/24 02:01:32;;;;;;;0.10;0.10;;;;;;;4.19;100.00;99122.53;6244755;22;20095;-76
2022/11/24 02:03:58;;;;;;;0.73;0.65;;;;;;;4.17;100.00;99119.41;6221927;22;20016;-85
2022/11/24 02:06:26;;;;;;;0.60;0.60;;;;;;;4.25;100.00;99128.28;6214817;23;20445;-86
2022/11/24 02:09:07;;;;;;;0.00;0.00;;;;;;;4.26;100.00;99131.81;6189603;23;20395;-86
2022/11/24 02:11:37;;;;;;;0.40;0.40;;;;;;;4.23;100.00;99133.44;6191186;23;20450;-86
2022/11/24 02:14:04;;;;;;;0.85;0.43;;;;;;;4.24;100.00;99126.78;6215448;23;20361;-86
2022/11/24 02:16:31;;;;;;;3.00;1.65;;;;;;;4.20;100.00;99128.78;6214768;23;20083;-86
2022/11/24 02:18:56;;;;;;;1.90;0.63;;;;;;;4.22;100.00;99131.88;6187663;23;20101;-86
2022/11/24 02:21:22;;;;;;;0.00;0.00;;;;;;;4.16;100.00;99117.09;6215855;23;20024;-86
2022/11/24 02:24:05;;;;;;;0.70;0.70;;;;;;;4.20;100.00;99131.53;6215069;23;20429;-86
2022/11/24 02:26:41;;;;;;;0.75;0.75;;;;;;;4.20;100.00;99129.56;6166303;23;20327;-86
2022/11/24 02:29:07;;;;;;;1.35;1.00;;;;;;;4.17;100.00;99124.13;6216712;23;20149;-86
2022/11/24 02:31:32;;;;;;;1.08;0.98;;;;;;;4.13;100.00;99128.88;6217026;23;20044;-86
2022/11/24 02:33:58;;;;;;;0.05;0.05;;;;;;;4.04;100.00;99103.94;6242951;23;20040;-85
2022/11/24 02:36:23;;;;;;;0.30;0.22;;;;;;;4.10;100.00;99096.78;6218338;23;20012;-85
2022/11/24 02:38:49;;;;;;;0.30;0.30;;;;;;;4.03;100.00;99099.66;6241799;23;20012;-82
2022/11/24 02:41:18;;;;;;;0.32;0.32;;;;;;;4.03;100.00;99096.91;6166051;23;20019;-82
2022/11/24 02:43:54;;;;;;;1.67;0.93;;;;;;;4.00;100.00;99103.22;6214093;23;20019;-81
2022/11/24 02:46:20;;;;;;;0.10;0.10;;;;;;;3.84;100.00;99106.59;6216290;23;20046;-82
2022/11/24 02:48:45;;;;;;;0.05;0.05;;;;;;;3.82;100.00;99114.44;6213251;23;20422;-81
2022/11/24 02:51:10;;;;;;;0.20;0.20;;;;;;;3.76;100.00;99108.66;6215652;23;20040;-81
2022/11/24 02:53:36;;;;;;;0.30;0.30;;;;;;;3.72;100.00;99110.66;6214135;23;20016;-81
2022/11/24 02:56:01;;;;;;;0.20;0.20;;;;;;;3.68;100.00;99115.41;6214279;23;20004;-82
2022/11/24 02:58:27;;;;;;;0.10;0.10;;;;;;;3.69;100.00;99119.72;6241934;23;20029;-85
2022/11/24 03:00:56;;;;;;;0.38;0.38;;;;;;;3.61;100.00;99115.53;6214147;23;20047;-85
2022/11/24 03:03:22;;;;;;;0.30;0.30;;;;;;;3.57;100.00;99120.28;6199039;23;20020;-86
2022/11/24 03:05:47;;;;;;;0.63;0.63;;;;;;;3.54;100.00;99121.09;6164427;23;20012;-86
2022/11/24 03:08:13;;;;;;;1.08;1.02;;;;;;;3.53;100.00;99122.28;6214205;23;19996;-85
2022/11/24 03:10:38;;;;;;;1.73;1.63;;;;;;;3.49;100.00;99124.31;6215347;23;20004;-85
2022/11/24 03:13:04;;;;;;;0.10;0.10;;;;;;;3.46;100.00;99124.34;6240777;23;20035;-84
2022/11/24 03:15:29;;;;;;;0.40;0.40;;;;;;;3.37;100.00;99119.38;6188876;23;20012;-86
2022/11/24 03:17:58;;;;;;;2.38;2.17;;;;;;;3.41;100.00;99133.03;6241629;23;20087;-82
2022/11/24 03:20:24;;;;;;;3.42;1.67;;;;;;;3.29;100.00;99124.16;6243098;23;20089;-82
2022/11/24 03:22:49;;;;;;;0.65;0.65;;;;;;;3.31;100.00;99134.72;6190597;23;20007;-82
2022/11/24 03:25:15;;;;;;;0.60;0.50;;;;;;;3.36;100.00;99139.72;6242699;23;20020;-82
2022/11/24 03:27:40;;;;;;;0.28;0.28;;;;;;;3.33;100.00;99137.81;6215677;23;20319;-81
2022/11/24 03:30:09;;;;;;;0.60;0.60;;;;;;;3.25;100.00;99142.59;6243288;23;20039;-81
2022/11/24 03:32:34;;;;;;;0.30;0.30;;;;;;;3.25;100.00;99145.34;6242748;23;20011;-82
2022/11/24 03:35:00;;;;;;;0.20;0.20;;;;;;;3.26;100.00;99151.63;6242303;23;20365;-82
2022/11/24 03:37:25;;;;;;;0.63;0.63;;;;;;;3.27;100.00;99139.47;6216139;23;20015;-82
2022/11/24 03:39:51;;;;;;;1.75;1.65;;;;;;;3.29;100.00;99142.56;6241982;23;20033;-81
2022/11/24 03:42:16;;;;;;;2.03;1.85;;;;;;;3.24;100.00;99134.78;6243998;23;20015;-82
2022/11/24 03:44:42;;;;;;;1.08;1.08;;;;;;;3.31;100.00;99145.69;6241543;23;20019;-81
2022/11/24 03:47:09;;;;;;;2.20;0.40;;;;;;;3.40;100.00;99156.16;6191647;23;20015;-82
2022/11/24 03:49:35;;;;;;;0.35;0.35;;;;;;;3.47;100.00;99156.84;6242524;23;20031;-81
2022/11/24 03:52:00;;;;;;;2.97;2.45;;;;;;;3.47;100.00;99165.06;6243168;23;20121;-82
2022/11/24 03:54:26;;;;;;;3.92;3.20;;;;;;;3.53;100.00;99173.59;6242953;23;20012;-86
2022/11/24 03:56:52;;;;;;;0.00;0.00;;;;;;;3.46;100.00;99166.25;6215198;23;20012;-86
2022/11/24 03:59:18;;;;;;;0.20;0.20;;;;;;;3.48;100.00;99172.09;6217300;23;20437;-86
2022/11/24 04:01:43;;;;;;;2.92;1.40;;;;;;;3.48;100.00;99174.09;6216187;23;20429;-86
2022/11/24 04:04:10;;;;;;;0.95;0.90;;;;;;;3.50;100.00;99169.72;6218999;23;20066;-86
2022/11/24 04:06:35;;;;;;;0.55;0.40;;;;;;;3.45;100.00;99164.69;6188306;23;20019;-86
2022/11/24 04:09:01;;;;;;;0.25;0.25;;;;;;;3.46;100.00;99173.69;6212300;23;20004;-85
2022/11/24 04:14:10;;;;;;;;;;;;;;;3.41;100.00;99166.69;6213411;23;20012;-86
2022/11/24 04:16:36;;;;;;;1.80;0.73;;;;;;;3.40;100.00;99175.34;6160976;23;20241;-85
2022/11/24 04:19:01;;;;;;;1.52;1.42;;;;;;;3.37;100.00;99176.94;6185421;23;20362;-86
2022/11/24 04:21:26;;;;;;;0.47;0.47;;;;;;;3.36;100.00;99169.13;6212676;23;20005;-85
2022/11/24 04:23:52;;;;;;;1.25;0.32;;;;;;;3.33;100.00;99176.19;6160162;23;20017;-85
2022/11/24 04:26:17;;;;;;;0.25;0.25;;;;;;;3.32;100.00;99187.59;6162022;23;20039;-84
2022/11/24 04:28:43;;;;;;;1.75;1.38;;;;;;;3.25;100.00;99180.97;6213753;23;20012;-85
2022/11/24 04:31:10;;;;;;;0.35;0.35;;;;;;;3.25;100.00;99197.41;6187760;23;20024;-82
2022/11/24 04:33:35;;;;;;;0.38;0.38;;;;;;;3.20;100.00;99199.81;6162719;23;20063;-85
2022/11/24 04:36:01;;;;;;;2.08;0.88;;;;;;;3.17;100.00;99212.38;6186843;23;20434;-85
2022/11/24 04:38:26;;;;;;;0.03;0.03;;;;;;;3.19;100.00;99218.25;6213575;23;20111;-86
2022/11/24 04:40:52;;;;;;;0.15;0.15;;;;;;;3.17;100.00;99217.88;6211487;23;20013;-86
2022/11/24 04:43:18;;;;;;;0.15;0.15;;;;;;;3.12;100.00;99225.75;6186311;23;20115;-85
2022/11/24 04:45:44;;;;;;;0.15;0.10;;;;;;;3.06;100.00;99227.38;6186130;23;20092;-86
2022/11/24 04:48:09;;;;;;;0.03;0.03;;;;;;;3.09;100.00;99235.56;6212214;23;20040;-85
2022/11/24 04:50:36;;;;;;;0.00;0.00;;;;;;;3.06;100.00;99238.34;6211766;23;20490;-85
2022/11/24 04:53:01;;;;;;;0.00;0.00;;;;;;;3.06;100.00;99243.81;6185894;23;20324;-85
2022/11/24 04:55:26;;;;;;;0.13;0.13;;;;;;;3.06;100.00;99254.78;6184416;23;20096;-85
2022/11/24 04:57:52;;;;;;;0.20;0.20;;;;;;;3.00;100.00;99248.16;6211836;23;20036;-85
2022/11/24 05:00:18;;;;;;;0.20;0.20;;;;;;;3.02;100.00;99260.28;6186015;23;20008;-84
2022/11/24 05:02:43;;;;;;;1.90;1.80;;;;;;;2.97;100.00;99268.16;6217316;23;20016;-85
2022/11/24 05:05:09;;;;;;;0.25;0.25;;;;;;;2.86;100.00;99270.22;6241759;23;20023;-85
2022/11/24 05:07:34;;;;;;;0.40;0.40;;;;;;;2.80;100.00;99262.41;6215208;23;20016;-85
2022/11/24 05:12:44;;;;;;;1.95;0.65;;;;;;;2.66;100.00;99270.75;6243297;23;20020;-81
2022/11/24 05:15:09;;;;;;;0.57;0.57;;;;;;;2.62;100.00;99286.44;6242948;23;20378;-81
2022/11/24 05:17:37;;;;;;;0.98;0.95;;;;;;;2.61;100.00;99295.03;6217019;23;20256;-82
2022/11/24 05:20:04;;;;;;;0.25;0.25;;;;;;;2.58;100.00;99285.69;6217473;23;20018;-82
2022/11/24 05:22:30;;;;;;;0.10;0.10;;;;;;;2.54;100.00;99289.63;6216830;23;20002;-81
2022/11/24 05:24:55;;;;;;;0.60;0.55;;;;;;;2.48;100.00;99289.25;6242993;23;20027;-81
2022/11/24 05:27:21;;;;;;;0.20;0.20;;;;;;;2.51;100.00;99296.66;6217026;23;20012;-81
2022/11/24 05:29:47;;;;;;;0.10;0.10;;;;;;;2.40;100.00;99295.16;6243184;23;20446;-81
2022/11/24 05:32:12;;;;;;;0.32;0.32;;;;;;;2.40;100.00;99309.63;6244160;23;20133;-81
2022/11/24 05:34:38;;;;;;;0.05;0.05;;;;;;;2.35;100.00;99293.63;6216395;23;20595;-81
2022/11/24 05:37:03;;;;;;;0.15;0.15;;;;;;;2.35;100.00;99301.84;6217067;23;20374;-81
2022/11/24 05:39:33;;;;;;;0.00;0.00;;;;;;;2.20;100.00;99303.09;6191899;23;20394;-81
2022/11/24 05:41:59;;;;;;;0.00;0.00;;;;;;;2.17;100.00;99303.91;6216514;23;20025;-81
2022/11/24 05:44:45;;;;;;;0.55;0.55;;;;;;;2.21;100.00;99312.88;6243152;23;20052;-81
2022/11/24 05:47:10;;;;;;;0.80;0.70;;;;;;;2.14;100.00;99316.44;6216501;23;20369;-81
2022/11/24 05:49:36;;;;;;;0.43;0.43;;;;;;;2.24;100.00;99320.28;6216010;23;20023;-85
2022/11/24 05:52:01;;;;;;;0.30;0.30;;;;;;;2.22;100.00;99328.13;6215117;23;20465;-85
2022/11/24 05:54:28;;;;;;;0.00;0.00;;;;;;;2.19;100.00;99317.94;6241949;23;20008;-85
2022/11/24 05:56:54;;;;;;;1.50;1.42;;;;;;;2.16;100.00;99333.22;6216434;23;20016;-84
2022/11/24 05:59:20;;;;;;;0.10;0.10;;;;;;;2.23;100.00;99346.84;6216315;23;20008;-85
2022/11/24 06:01:45;;;;;;;0.80;0.80;;;;;;;2.21;100.00;99332.03;6190945;23;20023;-85
2022/11/24 06:04:11;;;;;;;0.20;0.20;;;;;;;2.24;100.00;99353.88;6190962;23;20019;-86
2022/11/24 06:06:36;;;;;;;1.48;1.25;;;;;;;2.22;100.00;99360.94;6243666;23;20016;-83
2022/11/24 06:09:01;;;;;;;0.00;0.00;;;;;;;2.05;100.00;99350.84;6243211;23;20008;-86
2022/11/24 06:11:27;;;;;;;0.15;0.15;;;;;;;2.13;100.00;99372.31;6242660;23;20039;-85
2022/11/24 06:13:53;;;;;;;0.55;0.30;;;;;;;2.08;100.00;99367.25;6241407;23;20008;-86
2022/11/24 06:16:19;;;;;;;0.73;0.73;;;;;;;2.08;100.00;99371.94;6214743;23;20079;-85
2022/11/24 06:18:44;;;;;;;1.67;1.55;;;;;;;1.97;100.00;99366.50;6215289;23;20016;-86
2022/11/24 06:21:10;;;;;;;1.08;0.98;;;;;;;1.98;100.00;99378.22;6241904;23;20012;-86
2022/11/24 06:23:35;;;;;;;2.35;2.15;;;;;;;1.97;100.00;99382.91;6214164;23;20016;-84
2022/11/24 06:26:01;;;;;;;0.15;0.15;;;;;;;2.02;100.00;99389.94;6241984;23;20004;-84
2022/11/24 06:28:26;;;;;;;4.18;2.60;;;;;;;2.05;100.00;99394.63;6241718;23;20434;-84
2022/11/24 06:30:52;;;;;;;0.70;0.70;;;;;;;2.11;100.00;99398.50;6238914;23;20130;-84
2022/11/24 06:33:17;;;;;;;0.43;0.43;;;;;;;2.20;100.00;99396.13;6189688;23;20016;-84
2022/11/24 06:35:43;;;;;;;5.18;1.35;;;;;;;2.25;100.00;99392.97;6187051;23;20019;-84
2022/11/24 06:38:09;;;;;;;2.90;1.27;;;;;;;2.29;100.00;99393.75;6239231;23;20019;-84
2022/11/24 06:40:34;;;;;;;1.92;1.20;;;;;;;2.36;100.00;99401.94;6188853;23;20442;-84
2022/11/24 06:43:00;;;;;;;0.35;0.35;;;;;;;2.45;100.00;99402.28;6184376;23;20062;-84
2022/11/24 06:45:25;;;;;;;0.68;0.68;;;;;;;2.54;100.00;99397.16;6213603;23;20020;-84
2022/11/24 06:47:54;;;;;;;1.35;1.35;;;;;;;2.58;100.00;99408.09;6237335;23;20004;-84
2022/11/24 06:50:20;;;;;;;0.43;0.43;;;;;;;2.59;100.00;99413.16;6188504;23;20012;-83
2022/11/24 06:52:45;;;;;;;0.50;0.50;;;;;;;2.61;100.00;99407.28;6238625;23;20063;-85
2022/11/24 06:55:11;;;;;;;0.80;0.80;;;;;;;2.77;100.00;99413.88;6236558;23;20058;-85
2022/11/24 06:57:36;;;;;;;0.30;0.30;;;;;;;2.87;100.00;99414.22;6239422;23;20385;-85
2022/11/24 07:00:04;;;;;;;0.28;0.28;;;;;;;3.01;100.00;99420.38;6239744;23;20012;-85
2022/11/24 07:02:29;;;;;;;1.40;0.63;;;;;;;3.15;100.00;99423.03;6188078;23;20058;-86
2022/11/24 07:04:58;;;;;;;0.70;0.70;;;;;;;3.28;100.00;99423.31;6211175;23;20016;-86
2022/11/24 07:07:23;;;;;;;0.88;0.85;;;;;;;3.41;100.00;99434.59;6213716;23;20012;-81
2022/11/24 07:09:48;;;;;;;0.13;0.13;;;;;;;3.54;100.00;99430.97;6239663;23;20126;-81
2022/11/24 07:12:14;;;;;;;5.40;1.52;;;;;;;3.61;100.00;99430.91;6242502;23;20015;-81
2022/11/24 07:14:40;;;;;;;0.30;0.30;;;;;;;3.78;100.00;99444.88;6214503;23;20016;-81
2022/11/24 07:17:06;;;;;;;1.17;1.08;;;;;;;3.83;100.00;99447.19;6243330;23;20008;-82
2022/11/24 07:19:31;;;;;;;0.68;0.68;;;;;;;3.95;100.00;99441.19;6190310;23;20016;-82
2022/11/24 07:21:57;;;;;;;1.17;0.80;;;;;;;3.98;100.00;99462.31;6242781;23;20019;-82
2022/11/24 07:24:22;;;;;;;3.25;0.93;;;;;;;4.03;100.00;99464.63;6242644;23;20315;-86
2022/11/24 07:26:48;;;;;;;0.30;0.30;;;;;;;4.19;100.00;99457.41;6166862;23;20580;-81
2022/11/24 07:29:13;;;;;;;0.20;0.20;;;;;;;4.21;100.00;99465.22;6216988;23;20115;-81
2022/11/24 07:31:39;;;;;;;0.00;0.00;;;;;;;4.22;100.00;99461.28;6243616;23;20062;-83
2022/11/24 07:34:05;;;;;;;0.63;0.63;;;;;;;4.40;100.00;99472.88;6216984;23;20342;-81
2022/11/24 07:36:30;;;;;;;0.75;0.75;;;;;;;4.49;100.00;99470.41;6217463;23;20021;-82
2022/11/24 07:38:56;;;;;;;0.30;0.30;;;;;;;4.44;100.00;99478.31;6242257;23;20449;-81
2022/11/24 07:41:21;;;;;;;1.45;1.17;;;;;;;4.63;100.00;99458.47;6242676;23;20008;-82
2022/11/24 07:43:47;;;;;;;0.30;0.30;;;;;;;4.81;100.00;99470.03;6190674;23;20012;-82
2022/11/24 07:46:15;;;;;;;1.58;1.48;;;;;;;4.84;100.00;99484.91;6215030;23;20009;-82
2022/11/24 07:48:40;;;;;;;1.70;1.30;;;;;;;4.85;100.00;99481.78;6215797;23;20012;-82
2022/11/24 07:51:06;;;;;;;0.57;0.45;;;;;;;4.83;100.00;99486.09;6242225;23;20315;-82
2022/11/24 07:53:32;;;;;;;0.30;0.30;;;;;;;4.81;100.00;99480.25;6243840;23;20051;-82
2022/11/24 07:55:59;;;;;;;0.65;0.65;;;;;;;4.94;100.00;99494.97;6244192;23;20008;-81
2022/11/24 07:58:27;;;;;;;0.77;0.77;;;;;;;4.97;100.00;99488.69;6218116;23;20087;-82
2022/11/24 08:00:53;;;;;;;0.55;0.55;;;;;;;4.92;100.00;99489.13;6218303;23;19997;-86
2022/11/24 08:03:18;;;;;;;0.65;0.65;;;;;;;5.01;100.00;99497.66;6244524;23;20107;-82
2022/11/24 08:05:52;;;;;;;1.45;1.10;;;;;;;4.99;100.00;99483.53;6244798;23;20012;-82
2022/11/24 08:08:18;;;;;;;3.20;1.52;;;;;;;5.14;100.00;99504.16;6244623;23;20362;-81
2022/11/24 08:10:44;;;;;;;0.15;0.15;;;;;;;5.22;100.00;99486.38;6217870;23;20015;-82
2022/11/24 08:13:09;;;;;;;4.88;3.05;;;;;;;5.32;100.00;99492.91;6244233;23;20086;-82
2022/11/24 08:15:35;;;;;;;2.10;1.98;;;;;;;5.45;100.00;99496.66;6244307;23;20011;-82
2022/11/24 08:18:02;;;;;;;2.10;2.00;;;;;;;5.78;100.00;99503.25;6217541;23;20716;-82
2022/11/24 08:20:27;;;;;;;2.65;2.45;;;;;;;5.90;100.00;99499.94;6218356;23;20019;-82
2022/11/24 08:22:57;;;;;;;0.93;0.93;;;;;;;6.06;100.00;99497.28;6217573;23;20012;-82
2022/11/24 08:25:25;;;;;;;0.38;0.38;;;;;;;6.18;100.00;99504.16;6217302;23;20324;-83
2022/11/24 08:27:51;;;;;;;1.00;0.65;;;;;;;6.39;100.00;99514.81;6219337;23;20039;-83
2022/11/24 08:30:16;;;;;;;1.50;0.93;;;;;;;6.22;100.00;99510.41;6217277;23;20430;-82
2022/11/24 08:32:42;;;;;;;1.35;1.05;;;;;;;6.49;100.00;99505.56;6217895;23;20458;-83
2022/11/24 08:35:08;;;;;;;0.80;0.80;;;;;;;6.44;100.00;99517.06;6243793;23;20008;-82
2022/11/24 08:37:33;;;;;;;1.35;1.08;;;;;;;6.74;100.00;99514.13;6244264;23;20079;-83
2022/11/24 08:39:59;;;;;;;0.80;0.63;;;;;;;6.83;100.00;99519.09;6217258;23;20050;-82
2022/11/24 08:42:24;;;;;;;3.92;1.63;;;;;;;6.99;100.00;99516.41;6192655;23;20008;-83
2022/11/24 08:44:50;;;;;;;0.45;0.45;;;;;;;6.85;100.00;99525.72;6191972;23;20465;-83
2022/11/24 08:47:15;;;;;;;1.65;1.45;;;;;;;6.64;100.00;99530.88;6217005;23;20462;-82
2022/11/24 08:49:41;;;;;;;0.00;0.00;;;;;;;6.61;100.00;99518.72;6244288;23;20000;-82
2022/11/24 08:52:06;;;;;;;0.65;0.65;;;;;;;6.73;100.00;99518.09;6217391;23;20050;-82
2022/11/24 08:54:32;;;;;;;0.47;0.47;;;;;;;6.90;100.00;99524.47;6191703;23;20024;-82
2022/11/24 08:56:57;;;;;;;0.45;0.45;;;;;;;6.95;100.00;99526.72;6243899;23;20307;-83
2022/11/24 08:59:23;;;;;;;2.53;1.83;;;;;;;7.05;100.00;99520.19;6244270;23;20008;-83
2022/11/24 09:01:48;;;;;;;0.47;0.47;;;;;;;7.25;100.00;99543.03;6244312;23;20328;-83
2022/11/24 09:04:16;;;;;;;0.57;0.57;;;;;;;7.14;100.00;99538.94;6216385;23;20016;-82
2022/11/24 09:06:42;;;;;;;0.45;0.45;;;;;;;7.16;100.00;99539.31;6244216;23;20016;-82
2022/11/24 09:09:08;;;;;;;1.08;1.08;;;;;;;7.16;100.00;99544.81;6190470;23;20114;-82
2022/11/24 09:11:34;;;;;;;0.75;0.75;;;;;;;7.14;100.00;99553.50;6215912;23;20015;-82
2022/11/24 09:13:59;;;;;;;0.68;0.68;;;;;;;7.12;100.00;99544.88;6243635;23;20369;-81
2022/11/24 09:16:27;;;;;;;3.33;2.13;;;;;;;7.10;100.00;99547.28;6191941;23;20345;-82
2022/11/24 09:19:01;;;;;;;1.10;1.05;;;;;;;7.00;100.00;99549.06;6191985;23;20419;-86
2022/11/24 09:21:27;;;;;;;0.77;0.77;;;;;;;6.97;100.00;99549.13;6192454;23;20015;-82
2022/11/24 09:23:54;;;;;;;0.75;0.50;;;;;;;7.03;100.00;99552.97;6243785;23;20015;-81
2022/11/24 09:26:22;;;;;;;1.42;1.33;;;;;;;7.08;100.00;99544.16;6216446;23;20016;-81
2022/11/24 09:28:48;;;;;;;0.47;0.47;;;;;;;7.06;100.00;99552.09;6216788;23;20425;-82
2022/11/24 09:31:15;;;;;;;1.40;0.77;;;;;;;7.02;100.00;99551.41;6166623;23;20095;-81
2022/11/24 09:33:41;;;;;;;0.73;0.73;;;;;;;7.19;100.00;99558.53;6243520;23;20008;-82
2022/11/24 09:36:07;;;;;;;0.22;0.22;;;;;;;7.27;100.00;99556.41;6243191;23;20004;-81
2022/11/24 09:38:33;;;;;;;1.23;1.02;;;;;;;7.32;100.00;99558.66;6243269;23;20326;-85
2022/11/24 09:41:14;;;;;;;0.43;0.43;;;;;;;7.44;100.00;99566.28;6217472;23;20008;-85
2022/11/24 09:43:55;;;;;;;0.57;0.57;;;;;;;7.49;100.00;99560.25;6243454;23;20012;-85
2022/11/24 09:46:52;;;;;;;1.52;0.70;;;;;;;7.61;100.00;99569.84;6242362;23;20087;-85
2022/11/24 09:49:26;;;;;;;0.50;0.50;;;;;;;7.52;100.00;99569.66;6190707;23;20025;-85
2022/11/24 09:51:53;;;;;;;0.38;0.38;;;;;;;7.50;100.00;99570.09;6192164;23;20008;-85
2022/11/24 09:54:22;;;;;;;0.63;0.63;;;;;;;7.32;100.00;99575.22;6215699;23;20435;-85
2022/11/24 09:56:50;;;;;;;0.68;0.68;;;;;;;7.26;100.00;99566.66;6191214;23;20070;-81
2022/11/24 09:59:16;;;;;;;2.63;0.55;;;;;;;7.20;100.00;99573.84;6217088;23;20054;-85
2022/11/24 10:01:43;;;;;;;0.75;0.43;;;;;;;7.20;100.00;99568.34;6192546;23;20019;-86
2022/11/24 10:04:20;;;;;;;0.90;0.90;;;;;;;7.25;100.00;99565.09;6215849;23;20023;-86
2022/11/24 10:07:10;;;;;;;0.93;0.85;;;;;;;7.35;100.00;99572.38;6192017;23;20397;-85
2022/11/24 10:09:38;;;;;;;2.75;1.60;;;;;;;7.14;100.00;99586.59;6243500;23;20020;-85
2022/11/24 10:12:12;;;;;;;3.72;1.65;;;;;;;6.85;100.00;99574.56;6241558;23;20438;-85
2022/11/24 10:14:47;;;;;;;1.02;0.98;;;;;;;6.97;100.00;99579.47;6215673;23;20054;-81
2022/11/24 10:17:16;;;;;;;0.82;0.70;;;;;;;7.01;100.00;99582.91;6243404;23;20016;-85
2022/11/24 10:19:50;;;;;;;1.50;1.40;;;;;;;6.77;100.00;99581.41;6216375;23;20096;-85
2022/11/24 10:22:24;;;;;;;0.60;0.60;;;;;;;6.79;100.00;99588.09;6243379;23;20438;-85
2022/11/24 10:25:12;;;;;;;1.63;1.52;;;;;;;6.70;100.00;99590.59;6241975;23;20015;-86
2022/11/24 10:27:48;;;;;;;1.50;1.40;;;;;;;6.67;100.00;99587.91;6242417;23;20020;-85
2022/11/24 10:30:18;;;;;;;0.75;0.75;;;;;;;6.72;100.00;99592.91;6216420;23;20012;-86
2022/11/24 10:33:07;;;;;;;0.52;0.52;;;;;;;6.71;100.00;99585.88;6216319;23;20012;-85
2022/11/24 10:35:44;;;;;;;4.28;0.90;;;;;;;6.55;100.00;99595.56;6216256;23;20042;-83
2022/11/24 10:38:19;;;;;;;0.55;0.55;;;;;;;6.63;100.00;99596.25;6243309;23;20446;-82
2022/11/24 10:40:47;;;;;;;0.38;0.38;;;;;;;6.58;100.00;99585.69;6243268;23;20050;-82
2022/11/24 10:43:13;;;;;;;0.30;0.30;;;;;;;6.62;100.00;99591.16;6242096;23;20012;-82
2022/11/24 10:45:39;;;;;;;1.55;1.38;;;;;;;6.63;100.00;99592.72;6243231;23;20326;-81
2022/11/24 10:48:29;;;;;;;1.27;0.77;;;;;;;6.59;100.00;99584.50;6242873;23;20023;-82
2022/11/24 10:51:04;;;;;;;0.38;0.38;;;;;;;6.74;100.00;99593.28;6243555;23;20019;-82
2022/11/24 10:53:30;;;;;;;3.15;1.73;;;;;;;6.74;100.00;99590.53;6215599;23;20019;-82
2022/11/24 10:55:55;;;;;;;0.22;0.22;;;;;;;6.93;100.00;99592.53;6215758;23;20314;-85
2022/11/24 10:58:34;;;;;;;6.13;1.45;;;;;;;6.97;100.00;99580.25;6216032;23;20066;-86
2022/11/24 11:01:26;;;;;;;0.80;0.60;;;;;;;7.09;100.00;99592.59;6216431;23;20484;-85
2022/11/24 11:03:56;;;;;;;1.05;0.90;;;;;;;6.98;100.00;99592.06;6190639;23;20028;-86
2022/11/24 11:06:31;;;;;;;1.08;0.95;;;;;;;7.07;100.00;99584.00;6191327;23;20867;-85
2022/11/24 11:09:06;;;;;;;0.65;0.65;;;;;;;7.18;100.00;99587.31;6242943;23;20012;-86
2022/11/24 11:11:32;;;;;;;0.00;0.00;;;;;;;7.16;100.00;99573.16;6215672;23;20446;-86
2022/11/24 11:14:00;;;;;;;0.00;0.00;;;;;;;7.18;100.00;99587.31;6242600;23;20070;-86
2022/11/24 11:16:33;;;;;;;1.10;1.00;;;;;;;7.16;100.00;99600.75;6165910;23;20028;-86
2022/11/24 11:19:02;;;;;;;0.82;0.82;;;;;;;7.21;100.00;99600.25;6216335;23;20012;-85
2022/11/24 11:21:36;;;;;;;0.73;0.73;;;;;;;7.13;100.00;99596.06;6216691;23;20079;-86
2022/11/24 11:24:21;;;;;;;0.63;0.63;;;;;;;7.21;100.00;99594.72;6215664;23;20058;-85
2022/11/24 11:26:46;;;;;;;0.35;0.35;;;;;;;7.14;100.00;99596.84;6215051;23;20565;-85
2022/11/24 11:29:15;;;;;;;0.20;0.20;;;;;;;7.09;100.00;99572.53;6242687;23;20103;-86
2022/11/24 11:31:40;;;;;;;1.25;1.17;;;;;;;7.03;100.00;99586.03;6216763;23;20061;-82
2022/11/24 11:34:09;;;;;;;0.05;0.05;;;;;;;7.08;100.00;99593.81;6215498;23;20369;-86
2022/11/24 11:36:38;;;;;;;0.77;0.68;;;;;;;6.92;100.00;99596.47;6243078;23;20020;-85
2022/11/24 11:39:04;;;;;;;1.08;0.75;;;;;;;7.02;100.00;99614.81;6215614;23;20354;-85
2022/11/24 11:41:35;;;;;;;0.40;0.40;;;;;;;6.97;100.00;99613.31;6215796;23;20008;-86